sensor_id;sensor_type;location;lat;lon;timestamp;temperature;humidity
5278;DHT22;2662;51.194;6.614;2023-05-16T00:02:16;11.70;99.90
5278;DHT22;2662;51.194;6.614;2023-05-16T00:04:43;11.80;99.90
5278;DHT22;2662;51.194;6.614;2023-05-16T00:07:11;11.70;99.90
5278;DHT22;2662;51.194;6.614;2023-05-16T00:09:38;11.70;99.90
5278;DHT22;2662;51.194;6.614;2023-05-16T00:12:06;11.60;99.90
5278;DHT22;2662;51.194;6.614;2023-05-16T00:14:34;11.60;99.90
5278;DHT22;2662;51.194;6.614;2023-05-16T00:17:01;11.60;99.90
5278;DHT22;2662;51.194;6.614;2023-05-16T00:19:29;11.70;99.90
5278;DHT22;2662;51.194;6.614;2023-05-16T00:21:55;11.70;99.90
5278;DHT22;2662;51.194;6.614;2023-05-16T00:24:22;11.60;99.90
5278;DHT22;2662;51.194;6.614;2023-05-16T00:26:49;11.50;99.90
5278;DHT22;2662;51.194;6.614;2023-05-16T00:29:15;11.40;99.90
5278;DHT22;2662;51.194;6.614;2023-05-16T00:31:43;11.40;99.90
5278;DHT22;2662;51.194;6.614;2023-05-16T00:34:10;11.30;99.90
5278;DHT22;2662;51.194;6.614;2023-05-16T00:36:37;11.20;99.90
5278;DHT22;2662;51.194;6.614;2023-05-16T00:39:04;11.00;99.90
5278;DHT22;2662;51.194;6.614;2023-05-16T00:41:32;11.00;99.90
5278;DHT22;2662;51.194;6.614;2023-05-16T00:43:59;11.00;99.90
5278;DHT22;2662;51.194;6.614;2023-05-16T00:46:26;11.00;99.90
5278;DHT22;2662;51.194;6.614;2023-05-16T00:48:54;10.90;99.90
5278;DHT22;2662;51.194;6.614;2023-05-16T00:51:20;10.80;99.90
5278;DHT22;2662;51.194;6.614;2023-05-16T00:53:47;10.80;99.90
5278;DHT22;2662;51.194;6.614;2023-05-16T00:56:14;10.80;99.90
5278;DHT22;2662;51.194;6.614;2023-05-16T00:58:41;10.90;99.90
5278;DHT22;2662;51.194;6.614;2023-05-16T01:01:08;11.00;99.90
5278;DHT22;2662;51.194;6.614;2023-05-16T01:03:35;11.00;99.90
5278;DHT22;2662;51.194;6.614;2023-05-16T01:06:04;11.00;99.90
5278;DHT22;2662;51.194;6.614;2023-05-16T01:08:32;11.10;99.90
5278;DHT22;2662;51.194;6.614;2023-05-16T01:11:04;11.00;99.90
5278;DHT22;2662;51.194;6.614;2023-05-16T01:13:40;11.00;99.90
5278;DHT22;2662;51.194;6.614;2023-05-16T01:16:12;11.00;99.90
5278;DHT22;2662;51.194;6.614;2023-05-16T01:18:42;11.00;99.90
5278;DHT22;2662;51.194;6.614;2023-05-16T01:21:17;10.90;99.90
5278;DHT22;2662;51.194;6.614;2023-05-16T01:23:51;10.90;99.90
5278;DHT22;2662;51.194;6.614;2023-05-16T01:26:24;10.80;99.90
5278;DHT22;2662;51.194;6.614;2023-05-16T01:28:52;10.80;99.90
5278;DHT22;2662;51.194;6.614;2023-05-16T01:31:20;10.70;99.90
5278;DHT22;2662;51.194;6.614;2023-05-16T01:33:47;10.60;99.90
5278;DHT22;2662;51.194;6.614;2023-05-16T01:36:20;10.60;99.90
5278;DHT22;2662;51.194;6.614;2023-05-16T01:38:58;10.60;99.90
5278;DHT22;2662;51.194;6.614;2023-05-16T01:41:33;10.60;99.90
5278;DHT22;2662;51.194;6.614;2023-05-16T01:44:03;10.60;99.90
5278;DHT22;2662;51.194;6.614;2023-05-16T01:46:37;10.60;99.90
5278;DHT22;2662;51.194;6.614;2023-05-16T01:49:15;10.60;99.90
5278;DHT22;2662;51.194;6.614;2023-05-16T01:51:46;10.60;99.90
5278;DHT22;2662;51.194;6.614;2023-05-16T01:54:17;10.50;99.90
5278;DHT22;2662;51.194;6.614;2023-05-16T01:56:51;10.40;99.90
5278;DHT22;2662;51.194;6.614;2023-05-16T01:59:19;10.40;99.90
5278;DHT22;2662;51.194;6.614;2023-05-16T02:01:46;10.40;99.90
5278;DHT22;2662;51.194;6.614;2023-05-16T02:04:13;10.40;99.90
5278;DHT22;2662;51.194;6.614;2023-05-16T02:06:40;10.40;99.90
5278;DHT22;2662;51.194;6.614;2023-05-16T02:09:07;10.40;99.90
5278;DHT22;2662;51.194;6.614;2023-05-16T02:11:34;10.40;99.90
5278;DHT22;2662;51.194;6.614;2023-05-16T02:14:02;10.40;99.90
5278;DHT22;2662;51.194;6.614;2023-05-16T02:16:28;10.40;99.90
5278;DHT22;2662;51.194;6.614;2023-05-16T02:18:55;10.30;99.90
5278;DHT22;2662;51.194;6.614;2023-05-16T02:21:22;10.40;99.90
5278;DHT22;2662;51.194;6.614;2023-05-16T02:23:49;10.30;99.90
5278;DHT22;2662;51.194;6.614;2023-05-16T02:26:16;10.30;99.90
5278;DHT22;2662;51.194;6.614;2023-05-16T02:28:43;10.30;99.90
5278;DHT22;2662;51.194;6.614;2023-05-16T02:31:11;10.40;99.90
5278;DHT22;2662;51.194;6.614;2023-05-16T02:33:38;10.40;99.90
5278;DHT22;2662;51.194;6.614;2023-05-16T02:36:06;10.50;99.90
5278;DHT22;2662;51.194;6.614;2023-05-16T02:38:33;10.40;99.90
5278;DHT22;2662;51.194;6.614;2023-05-16T02:40:59;10.40;99.90
5278;DHT22;2662;51.194;6.614;2023-05-16T02:43:26;10.40;99.90
5278;DHT22;2662;51.194;6.614;2023-05-16T02:45:53;10.40;99.90
5278;DHT22;2662;51.194;6.614;2023-05-16T02:48:21;10.30;99.90
5278;DHT22;2662;51.194;6.614;2023-05-16T02:50:48;10.30;99.90
5278;DHT22;2662;51.194;6.614;2023-05-16T02:53:15;10.30;99.90
5278;DHT22;2662;51.194;6.614;2023-05-16T02:55:42;10.40;99.90
5278;DHT22;2662;51.194;6.614;2023-05-16T02:58:08;10.40;99.90
5278;DHT22;2662;51.194;6.614;2023-05-16T03:00:35;10.30;99.90
5278;DHT22;2662;51.194;6.614;2023-05-16T03:03:03;10.20;99.90
5278;DHT22;2662;51.194;6.614;2023-05-16T03:05:31;10.20;99.90
5278;DHT22;2662;51.194;6.614;2023-05-16T03:07:58;10.10;99.90
5278;DHT22;2662;51.194;6.614;2023-05-16T03:10:25;10.10;99.90
5278;DHT22;2662;51.194;6.614;2023-05-16T03:12:51;10.10;99.90
5278;DHT22;2662;51.194;6.614;2023-05-16T03:15:18;10.00;99.90
5278;DHT22;2662;51.194;6.614;2023-05-16T03:17:45;9.90;99.90
5278;DHT22;2662;51.194;6.614;2023-05-16T03:20:12;9.90;99.90
5278;DHT22;2662;51.194;6.614;2023-05-16T03:22:41;9.90;99.90
5278;DHT22;2662;51.194;6.614;2023-05-16T03:25:09;9.90;99.90
5278;DHT22;2662;51.194;6.614;2023-05-16T03:27:36;9.80;99.90
5278;DHT22;2662;51.194;6.614;2023-05-16T03:30:03;9.60;99.90
5278;DHT22;2662;51.194;6.614;2023-05-16T03:32:30;9.60;99.90
5278;DHT22;2662;51.194;6.614;2023-05-16T03:34:57;9.50;99.90
5278;DHT22;2662;51.194;6.614;2023-05-16T03:37:24;9.50;99.90
5278;DHT22;2662;51.194;6.614;2023-05-16T03:39:52;9.40;99.90
5278;DHT22;2662;51.194;6.614;2023-05-16T03:42:19;9.30;99.90
5278;DHT22;2662;51.194;6.614;2023-05-16T03:44:46;9.20;99.90
5278;DHT22;2662;51.194;6.614;2023-05-16T03:47:12;9.10;99.90
5278;DHT22;2662;51.194;6.614;2023-05-16T03:49:39;9.10;99.90
5278;DHT22;2662;51.194;6.614;2023-05-16T03:52:06;9.10;99.90
5278;DHT22;2662;51.194;6.614;2023-05-16T03:54:33;9.10;99.90
5278;DHT22;2662;51.194;6.614;2023-05-16T03:57:01;9.00;99.90
5278;DHT22;2662;51.194;6.614;2023-05-16T03:59:27;9.00;99.90
5278;DHT22;2662;51.194;6.614;2023-05-16T04:01:54;9.00;99.90
5278;DHT22;2662;51.194;6.614;2023-05-16T04:04:21;8.90;99.90
5278;DHT22;2662;51.194;6.614;2023-05-16T04:06:48;8.90;99.90
5278;DHT22;2662;51.194;6.614;2023-05-16T04:09:15;8.90;99.90
5278;DHT22;2662;51.194;6.614;2023-05-16T04:11:43;8.90;99.90
5278;DHT22;2662;51.194;6.614;2023-05-16T04:14:11;8.90;99.90
5278;DHT22;2662;51.194;6.614;2023-05-16T04:16:38;8.90;99.90
5278;DHT22;2662;51.194;6.614;2023-05-16T04:19:05;8.90;99.90
5278;DHT22;2662;51.194;6.614;2023-05-16T04:21:31;8.90;99.90
5278;DHT22;2662;51.194;6.614;2023-05-16T04:24:00;8.90;99.90
5278;DHT22;2662;51.194;6.614;2023-05-16T04:26:27;8.80;99.90
5278;DHT22;2662;51.194;6.614;2023-05-16T04:28:54;8.80;99.90
5278;DHT22;2662;51.194;6.614;2023-05-16T04:31:24;8.90;99.90
5278;DHT22;2662;51.194;6.614;2023-05-16T04:33:51;8.80;99.90
5278;DHT22;2662;51.194;6.614;2023-05-16T04:36:19;8.80;99.90
5278;DHT22;2662;51.194;6.614;2023-05-16T04:38:46;8.80;99.90
5278;DHT22;2662;51.194;6.614;2023-05-16T04:41:13;8.90;99.90
5278;DHT22;2662;51.194;6.614;2023-05-16T04:43:40;8.90;99.90
5278;DHT22;2662;51.194;6.614;2023-05-16T04:46:07;9.00;99.90
5278;DHT22;2662;51.194;6.614;2023-05-16T04:48:35;9.10;99.90
5278;DHT22;2662;51.194;6.614;2023-05-16T04:51:02;9.10;99.90
5278;DHT22;2662;51.194;6.614;2023-05-16T04:53:29;9.20;99.90
5278;DHT22;2662;51.194;6.614;2023-05-16T04:55:56;9.20;99.90
5278;DHT22;2662;51.194;6.614;2023-05-16T04:58:23;9.20;99.90
5278;DHT22;2662;51.194;6.614;2023-05-16T05:00:50;9.30;99.90
5278;DHT22;2662;51.194;6.614;2023-05-16T05:03:17;9.30;99.90
5278;DHT22;2662;51.194;6.614;2023-05-16T05:05:45;9.30;99.90
5278;DHT22;2662;51.194;6.614;2023-05-16T05:08:12;9.40;99.90
5278;DHT22;2662;51.194;6.614;2023-05-16T05:10:39;9.40;99.90
5278;DHT22;2662;51.194;6.614;2023-05-16T05:13:06;9.50;99.90
5278;DHT22;2662;51.194;6.614;2023-05-16T05:15:33;9.50;99.90
5278;DHT22;2662;51.194;6.614;2023-05-16T05:18:00;9.60;99.90
5278;DHT22;2662;51.194;6.614;2023-05-16T05:20:27;9.70;99.90
5278;DHT22;2662;51.194;6.614;2023-05-16T05:22:55;9.80;99.90
5278;DHT22;2662;51.194;6.614;2023-05-16T05:25:21;9.90;99.90
5278;DHT22;2662;51.194;6.614;2023-05-16T05:27:48;10.00;99.90
5278;DHT22;2662;51.194;6.614;2023-05-16T05:30:15;10.20;99.90
5278;DHT22;2662;51.194;6.614;2023-05-16T05:32:42;10.30;99.90
5278;DHT22;2662;51.194;6.614;2023-05-16T05:35:09;11.10;99.90
5278;DHT22;2662;51.194;6.614;2023-05-16T05:37:35;12.90;99.90
5278;DHT22;2662;51.194;6.614;2023-05-16T05:40:05;14.70;99.90
5278;DHT22;2662;51.194;6.614;2023-05-16T05:42:31;16.00;99.90
5278;DHT22;2662;51.194;6.614;2023-05-16T05:44:58;17.20;99.90
5278;DHT22;2662;51.194;6.614;2023-05-16T05:47:25;18.40;99.90
5278;DHT22;2662;51.194;6.614;2023-05-16T05:49:52;19.30;99.90
5278;DHT22;2662;51.194;6.614;2023-05-16T05:52:18;20.10;99.90
5278;DHT22;2662;51.194;6.614;2023-05-16T05:54:46;20.30;99.90
5278;DHT22;2662;51.194;6.614;2023-05-16T05:57:14;20.30;99.90
5278;DHT22;2662;51.194;6.614;2023-05-16T05:59:41;20.90;99.90
5278;DHT22;2662;51.194;6.614;2023-05-16T06:02:08;21.40;99.90
5278;DHT22;2662;51.194;6.614;2023-05-16T06:04:34;21.90;99.90
5278;DHT22;2662;51.194;6.614;2023-05-16T06:07:02;22.80;99.90
5278;DHT22;2662;51.194;6.614;2023-05-16T06:09:29;22.90;99.90
5278;DHT22;2662;51.194;6.614;2023-05-16T06:11:56;23.30;98.80
5278;DHT22;2662;51.194;6.614;2023-05-16T06:14:24;23.40;98.90
5278;DHT22;2662;51.194;6.614;2023-05-16T06:16:50;23.20;97.80
5278;DHT22;2662;51.194;6.614;2023-05-16T06:19:17;23.30;98.10
5278;DHT22;2662;51.194;6.614;2023-05-16T06:21:44;23.00;98.40
5278;DHT22;2662;51.194;6.614;2023-05-16T06:24:11;22.30;97.60
5278;DHT22;2662;51.194;6.614;2023-05-16T06:26:37;22.70;98.10
5278;DHT22;2662;51.194;6.614;2023-05-16T06:29:04;22.40;96.60
5278;DHT22;2662;51.194;6.614;2023-05-16T06:31:32;20.60;99.90
5278;DHT22;2662;51.194;6.614;2023-05-16T06:33:59;19.40;99.90
5278;DHT22;2662;51.194;6.614;2023-05-16T06:36:26;20.10;99.90
5278;DHT22;2662;51.194;6.614;2023-05-16T06:38:52;19.90;99.90
5278;DHT22;2662;51.194;6.614;2023-05-16T06:41:19;19.40;99.90
5278;DHT22;2662;51.194;6.614;2023-05-16T06:43:46;19.00;99.90
5278;DHT22;2662;51.194;6.614;2023-05-16T06:46:12;18.60;99.90
5278;DHT22;2662;51.194;6.614;2023-05-16T06:48:40;18.60;99.90
5278;DHT22;2662;51.194;6.614;2023-05-16T06:51:07;18.50;99.90
5278;DHT22;2662;51.194;6.614;2023-05-16T06:53:34;18.10;99.90
5278;DHT22;2662;51.194;6.614;2023-05-16T06:56:01;18.00;99.90
5278;DHT22;2662;51.194;6.614;2023-05-16T06:58:27;18.50;99.90
5278;DHT22;2662;51.194;6.614;2023-05-16T07:00:54;18.20;99.90
5278;DHT22;2662;51.194;6.614;2023-05-16T07:03:21;18.20;99.90
5278;DHT22;2662;51.194;6.614;2023-05-16T07:05:49;18.00;99.90
5278;DHT22;2662;51.194;6.614;2023-05-16T07:08:17;18.00;99.90
5278;DHT22;2662;51.194;6.614;2023-05-16T07:10:44;17.40;99.90
5278;DHT22;2662;51.194;6.614;2023-05-16T07:13:11;17.00;99.90
5278;DHT22;2662;51.194;6.614;2023-05-16T07:15:37;18.90;99.90
5278;DHT22;2662;51.194;6.614;2023-05-16T07:18:04;19.70;99.90
5278;DHT22;2662;51.194;6.614;2023-05-16T07:20:31;21.10;99.90
5278;DHT22;2662;51.194;6.614;2023-05-16T07:22:59;20.40;99.90
5278;DHT22;2662;51.194;6.614;2023-05-16T07:25:26;18.90;99.90
5278;DHT22;2662;51.194;6.614;2023-05-16T07:27:52;17.80;99.90
5278;DHT22;2662;51.194;6.614;2023-05-16T07:30:19;17.70;99.90
5278;DHT22;2662;51.194;6.614;2023-05-16T07:32:46;18.10;99.90
5278;DHT22;2662;51.194;6.614;2023-05-16T07:35:13;17.50;99.90
5278;DHT22;2662;51.194;6.614;2023-05-16T07:37:40;16.70;99.90
5278;DHT22;2662;51.194;6.614;2023-05-16T07:40:10;17.00;99.90
5278;DHT22;2662;51.194;6.614;2023-05-16T07:42:37;18.70;99.90
5278;DHT22;2662;51.194;6.614;2023-05-16T07:45:04;20.60;99.90
5278;DHT22;2662;51.194;6.614;2023-05-16T07:47:32;21.60;99.90
5278;DHT22;2662;51.194;6.614;2023-05-16T07:49:59;22.60;97.50
5278;DHT22;2662;51.194;6.614;2023-05-16T07:52:26;22.70;95.10
5278;DHT22;2662;51.194;6.614;2023-05-16T07:54:52;22.40;95.40
5278;DHT22;2662;51.194;6.614;2023-05-16T07:57:20;22.80;92.20
5278;DHT22;2662;51.194;6.614;2023-05-16T07:59:47;23.30;92.10
5278;DHT22;2662;51.194;6.614;2023-05-16T08:02:15;22.10;92.10
5278;DHT22;2662;51.194;6.614;2023-05-16T08:04:41;22.70;92.50
5278;DHT22;2662;51.194;6.614;2023-05-16T08:07:08;22.60;90.60
5278;DHT22;2662;51.194;6.614;2023-05-16T08:09:35;21.50;92.40
5278;DHT22;2662;51.194;6.614;2023-05-16T08:12:02;22.20;91.70
5278;DHT22;2662;51.194;6.614;2023-05-16T08:14:30;22.70;92.70
5278;DHT22;2662;51.194;6.614;2023-05-16T08:16:57;23.50;90.40
5278;DHT22;2662;51.194;6.614;2023-05-16T08:19:24;24.00;90.10
5278;DHT22;2662;51.194;6.614;2023-05-16T08:21:51;24.60;90.30
5278;DHT22;2662;51.194;6.614;2023-05-16T08:24:18;23.70;86.00
5278;DHT22;2662;51.194;6.614;2023-05-16T08:26:45;23.60;86.80
5278;DHT22;2662;51.194;6.614;2023-05-16T08:29:11;23.30;86.10
5278;DHT22;2662;51.194;6.614;2023-05-16T08:31:40;22.50;85.30
5278;DHT22;2662;51.194;6.614;2023-05-16T08:34:06;22.00;85.50
5278;DHT22;2662;51.194;6.614;2023-05-16T08:36:34;23.00;89.10
5278;DHT22;2662;51.194;6.614;2023-05-16T08:39:02;24.20;88.90
5278;DHT22;2662;51.194;6.614;2023-05-16T08:41:29;24.80;84.80
5278;DHT22;2662;51.194;6.614;2023-05-16T08:43:56;24.80;83.40
5278;DHT22;2662;51.194;6.614;2023-05-16T08:46:23;24.70;82.90
5278;DHT22;2662;51.194;6.614;2023-05-16T08:48:52;24.80;80.50
5278;DHT22;2662;51.194;6.614;2023-05-16T08:51:20;24.20;79.20
5278;DHT22;2662;51.194;6.614;2023-05-16T08:53:53;24.30;78.70
5278;DHT22;2662;51.194;6.614;2023-05-16T08:56:20;24.00;78.00
5278;DHT22;2662;51.194;6.614;2023-05-16T08:58:48;24.30;77.90
5278;DHT22;2662;51.194;6.614;2023-05-16T09:01:15;24.80;77.70
5278;DHT22;2662;51.194;6.614;2023-05-16T09:03:42;24.10;79.60
5278;DHT22;2662;51.194;6.614;2023-05-16T09:06:11;23.30;77.50
5278;DHT22;2662;51.194;6.614;2023-05-16T09:08:38;22.90;78.30
5278;DHT22;2662;51.194;6.614;2023-05-16T09:11:05;23.40;79.60
5278;DHT22;2662;51.194;6.614;2023-05-16T09:13:32;23.60;80.50
5278;DHT22;2662;51.194;6.614;2023-05-16T09:16:10;22.80;80.80
5278;DHT22;2662;51.194;6.614;2023-05-16T09:18:37;21.40;83.50
5278;DHT22;2662;51.194;6.614;2023-05-16T09:21:05;20.10;86.20
5278;DHT22;2662;51.194;6.614;2023-05-16T09:23:34;18.70;90.30
5278;DHT22;2662;51.194;6.614;2023-05-16T09:26:02;19.10;92.90
5278;DHT22;2662;51.194;6.614;2023-05-16T09:28:29;20.10;92.50
5278;DHT22;2662;51.194;6.614;2023-05-16T09:30:56;20.60;92.00
5278;DHT22;2662;51.194;6.614;2023-05-16T09:33:26;19.80;89.80
5278;DHT22;2662;51.194;6.614;2023-05-16T09:35:55;18.60;91.80
5278;DHT22;2662;51.194;6.614;2023-05-16T09:38:23;19.10;92.70
5278;DHT22;2662;51.194;6.614;2023-05-16T09:40:52;20.40;90.90
5278;DHT22;2662;51.194;6.614;2023-05-16T09:43:25;21.40;91.40
5278;DHT22;2662;51.194;6.614;2023-05-16T09:45:52;21.10;85.90
5278;DHT22;2662;51.194;6.614;2023-05-16T09:48:20;20.70;84.90
5278;DHT22;2662;51.194;6.614;2023-05-16T09:50:49;20.70;86.90
5278;DHT22;2662;51.194;6.614;2023-05-16T09:53:24;20.30;85.90
5278;DHT22;2662;51.194;6.614;2023-05-16T09:56:00;19.80;90.60
5278;DHT22;2662;51.194;6.614;2023-05-16T09:58:28;19.50;92.70
5278;DHT22;2662;51.194;6.614;2023-05-16T10:00:56;19.60;93.30
5278;DHT22;2662;51.194;6.614;2023-05-16T10:03:23;20.00;93.60
5278;DHT22;2662;51.194;6.614;2023-05-16T10:05:50;20.40;93.80
5278;DHT22;2662;51.194;6.614;2023-05-16T10:08:19;20.00;92.80
5278;DHT22;2662;51.194;6.614;2023-05-16T10:10:49;20.40;92.70
5278;DHT22;2662;51.194;6.614;2023-05-16T10:13:18;21.70;93.20
5278;DHT22;2662;51.194;6.614;2023-05-16T10:15:47;22.60;88.80
5278;DHT22;2662;51.194;6.614;2023-05-16T10:18:15;22.30;88.00
5278;DHT22;2662;51.194;6.614;2023-05-16T10:20:45;21.40;88.00
5278;DHT22;2662;51.194;6.614;2023-05-16T10:23:16;20.60;86.10
5278;DHT22;2662;51.194;6.614;2023-05-16T10:25:45;19.80;86.90
5278;DHT22;2662;51.194;6.614;2023-05-16T10:28:12;18.90;90.30
5278;DHT22;2662;51.194;6.614;2023-05-16T10:30:42;18.10;92.90
5278;DHT22;2662;51.194;6.614;2023-05-16T10:33:11;17.70;95.00
5278;DHT22;2662;51.194;6.614;2023-05-16T10:35:40;17.10;96.10
5278;DHT22;2662;51.194;6.614;2023-05-16T10:38:08;16.80;97.80
5278;DHT22;2662;51.194;6.614;2023-05-16T10:40:36;16.90;98.70
5278;DHT22;2662;51.194;6.614;2023-05-16T10:43:05;18.10;98.90
5278;DHT22;2662;51.194;6.614;2023-05-16T10:45:32;18.70;96.50
5278;DHT22;2662;51.194;6.614;2023-05-16T10:48:01;18.70;94.40
5278;DHT22;2662;51.194;6.614;2023-05-16T10:50:31;18.10;94.90
5278;DHT22;2662;51.194;6.614;2023-05-16T10:53:13;17.80;95.90
5278;DHT22;2662;51.194;6.614;2023-05-16T10:55:44;17.60;96.70
5278;DHT22;2662;51.194;6.614;2023-05-16T10:58:11;17.40;98.20
5278;DHT22;2662;51.194;6.614;2023-05-16T11:00:38;17.80;98.40
5278;DHT22;2662;51.194;6.614;2023-05-16T11:03:21;18.30;98.70
5278;DHT22;2662;51.194;6.614;2023-05-16T11:05:51;18.60;98.70
5278;DHT22;2662;51.194;6.614;2023-05-16T11:08:18;18.70;98.90
5278;DHT22;2662;51.194;6.614;2023-05-16T11:10:45;18.40;98.30
5278;DHT22;2662;51.194;6.614;2023-05-16T11:13:12;18.50;97.90
5278;DHT22;2662;51.194;6.614;2023-05-16T11:15:44;18.40;99.20
5278;DHT22;2662;51.194;6.614;2023-05-16T11:18:15;18.50;98.30
5278;DHT22;2662;51.194;6.614;2023-05-16T11:20:43;18.10;97.80
5278;DHT22;2662;51.194;6.614;2023-05-16T11:23:23;17.80;98.80
5278;DHT22;2662;51.194;6.614;2023-05-16T11:25:53;17.70;98.70
5278;DHT22;2662;51.194;6.614;2023-05-16T11:28:20;17.60;98.00
5278;DHT22;2662;51.194;6.614;2023-05-16T11:30:49;17.50;98.30
5278;DHT22;2662;51.194;6.614;2023-05-16T11:33:18;17.40;98.40
5278;DHT22;2662;51.194;6.614;2023-05-16T11:36:02;17.60;99.80
5278;DHT22;2662;51.194;6.614;2023-05-16T11:38:30;17.80;98.70
5278;DHT22;2662;51.194;6.614;2023-05-16T11:41:04;17.50;98.30
5278;DHT22;2662;51.194;6.614;2023-05-16T11:43:42;17.30;99.90
5278;DHT22;2662;51.194;6.614;2023-05-16T11:46:13;17.10;99.90
5278;DHT22;2662;51.194;6.614;2023-05-16T11:48:42;16.70;99.90
5278;DHT22;2662;51.194;6.614;2023-05-16T11:51:11;16.60;99.90
5278;DHT22;2662;51.194;6.614;2023-05-16T11:53:39;16.60;99.90
5278;DHT22;2662;51.194;6.614;2023-05-16T11:56:07;16.60;99.90
5278;DHT22;2662;51.194;6.614;2023-05-16T11:58:34;16.70;99.90
5278;DHT22;2662;51.194;6.614;2023-05-16T12:01:03;16.90;99.90
5278;DHT22;2662;51.194;6.614;2023-05-16T12:03:30;17.20;99.90
5278;DHT22;2662;51.194;6.614;2023-05-16T12:05:59;17.60;99.90
5278;DHT22;2662;51.194;6.614;2023-05-16T12:08:26;17.80;99.90
5278;DHT22;2662;51.194;6.614;2023-05-16T12:10:53;17.80;99.90
5278;DHT22;2662;51.194;6.614;2023-05-16T12:13:22;17.80;99.90
5278;DHT22;2662;51.194;6.614;2023-05-16T12:15:50;17.70;99.90
5278;DHT22;2662;51.194;6.614;2023-05-16T12:18:17;17.80;99.90
5278;DHT22;2662;51.194;6.614;2023-05-16T12:20:45;18.10;99.90
5278;DHT22;2662;51.194;6.614;2023-05-16T12:23:14;17.80;99.90
5278;DHT22;2662;51.194;6.614;2023-05-16T12:25:45;17.60;99.90
5278;DHT22;2662;51.194;6.614;2023-05-16T12:28:13;17.20;99.90
5278;DHT22;2662;51.194;6.614;2023-05-16T12:30:41;17.20;99.90
5278;DHT22;2662;51.194;6.614;2023-05-16T12:33:09;17.10;99.90
5278;DHT22;2662;51.194;6.614;2023-05-16T12:35:38;17.10;99.90
5278;DHT22;2662;51.194;6.614;2023-05-16T12:38:06;17.00;99.90
5278;DHT22;2662;51.194;6.614;2023-05-16T12:40:35;17.10;99.90
5278;DHT22;2662;51.194;6.614;2023-05-16T12:43:03;17.10;99.70
5278;DHT22;2662;51.194;6.614;2023-05-16T12:45:32;17.10;99.90
5278;DHT22;2662;51.194;6.614;2023-05-16T12:48:03;17.30;99.80
5278;DHT22;2662;51.194;6.614;2023-05-16T12:50:32;17.50;98.20
5278;DHT22;2662;51.194;6.614;2023-05-16T12:52:59;17.60;96.10
5278;DHT22;2662;51.194;6.614;2023-05-16T12:55:26;17.60;96.30
5278;DHT22;2662;51.194;6.614;2023-05-16T12:57:54;17.30;97.20
5278;DHT22;2662;51.194;6.614;2023-05-16T13:00:22;17.40;96.70
5278;DHT22;2662;51.194;6.614;2023-05-16T13:02:49;17.30;96.00
5278;DHT22;2662;51.194;6.614;2023-05-16T13:05:16;17.20;92.30
5278;DHT22;2662;51.194;6.614;2023-05-16T13:07:43;17.30;94.40
5278;DHT22;2662;51.194;6.614;2023-05-16T13:10:10;17.60;92.10
5278;DHT22;2662;51.194;6.614;2023-05-16T13:12:38;17.80;91.30
5278;DHT22;2662;51.194;6.614;2023-05-16T13:15:07;17.90;90.70
5278;DHT22;2662;51.194;6.614;2023-05-16T13:17:35;17.90;87.50
5278;DHT22;2662;51.194;6.614;2023-05-16T13:20:02;18.00;90.20
5278;DHT22;2662;51.194;6.614;2023-05-16T13:22:33;17.70;87.90
5278;DHT22;2662;51.194;6.614;2023-05-16T13:25:00;17.50;88.80
5278;DHT22;2662;51.194;6.614;2023-05-16T13:27:29;17.80;90.50
5278;DHT22;2662;51.194;6.614;2023-05-16T13:29:56;17.80;90.20
5278;DHT22;2662;51.194;6.614;2023-05-16T13:32:24;17.90;91.30
5278;DHT22;2662;51.194;6.614;2023-05-16T13:34:51;18.10;90.20
5278;DHT22;2662;51.194;6.614;2023-05-16T13:37:18;18.60;92.00
5278;DHT22;2662;51.194;6.614;2023-05-16T13:39:45;18.90;90.90
5278;DHT22;2662;51.194;6.614;2023-05-16T13:42:11;18.70;90.20
5278;DHT22;2662;51.194;6.614;2023-05-16T13:44:38;18.60;90.60
5278;DHT22;2662;51.194;6.614;2023-05-16T13:47:05;18.40;90.70
5278;DHT22;2662;51.194;6.614;2023-05-16T13:49:33;18.40;91.80
5278;DHT22;2662;51.194;6.614;2023-05-16T13:52:00;18.40;91.60
5278;DHT22;2662;51.194;6.614;2023-05-16T13:54:27;18.40;93.00
5278;DHT22;2662;51.194;6.614;2023-05-16T13:56:54;18.50;91.20
5278;DHT22;2662;51.194;6.614;2023-05-16T13:59:20;18.70;92.60
5278;DHT22;2662;51.194;6.614;2023-05-16T14:01:47;18.70;92.50
5278;DHT22;2662;51.194;6.614;2023-05-16T14:04:14;18.60;92.90
5278;DHT22;2662;51.194;6.614;2023-05-16T14:06:42;18.40;91.90
5278;DHT22;2662;51.194;6.614;2023-05-16T14:09:09;18.30;93.20
5278;DHT22;2662;51.194;6.614;2023-05-16T14:11:37;18.10;92.10
5278;DHT22;2662;51.194;6.614;2023-05-16T14:14:04;17.90;92.70
5278;DHT22;2662;51.194;6.614;2023-05-16T14:16:31;17.80;93.40
5278;DHT22;2662;51.194;6.614;2023-05-16T14:18:58;17.90;93.80
5278;DHT22;2662;51.194;6.614;2023-05-16T14:21:24;18.00;93.30
5278;DHT22;2662;51.194;6.614;2023-05-16T14:23:53;18.40;94.10
5278;DHT22;2662;51.194;6.614;2023-05-16T14:26:20;18.40;94.20
5278;DHT22;2662;51.194;6.614;2023-05-16T14:28:49;18.30;93.60
5278;DHT22;2662;51.194;6.614;2023-05-16T14:31:16;18.00;92.40
5278;DHT22;2662;51.194;6.614;2023-05-16T14:33:43;18.00;93.60
5278;DHT22;2662;51.194;6.614;2023-05-16T14:36:10;17.90;94.30
5278;DHT22;2662;51.194;6.614;2023-05-16T14:38:37;17.70;94.50
5278;DHT22;2662;51.194;6.614;2023-05-16T14:41:05;17.40;93.90
5278;DHT22;2662;51.194;6.614;2023-05-16T14:43:31;17.20;92.70
5278;DHT22;2662;51.194;6.614;2023-05-16T14:45:58;17.10;92.00
5278;DHT22;2662;51.194;6.614;2023-05-16T14:48:25;16.80;91.80
5278;DHT22;2662;51.194;6.614;2023-05-16T14:50:52;16.70;93.10
5278;DHT22;2662;51.194;6.614;2023-05-16T14:53:19;16.80;92.40
5278;DHT22;2662;51.194;6.614;2023-05-16T14:55:47;16.90;92.40
5278;DHT22;2662;51.194;6.614;2023-05-16T14:58:15;16.90;92.10
5278;DHT22;2662;51.194;6.614;2023-05-16T15:00:42;17.10;92.70
5278;DHT22;2662;51.194;6.614;2023-05-16T15:03:09;17.10;93.60
5278;DHT22;2662;51.194;6.614;2023-05-16T15:05:36;17.30;93.60
5278;DHT22;2662;51.194;6.614;2023-05-16T15:08:03;17.30;94.20
5278;DHT22;2662;51.194;6.614;2023-05-16T15:10:30;17.50;94.40
5278;DHT22;2662;51.194;6.614;2023-05-16T15:12:57;17.40;94.10
5278;DHT22;2662;51.194;6.614;2023-05-16T15:15:25;17.50;94.30
5278;DHT22;2662;51.194;6.614;2023-05-16T15:17:52;17.20;93.60
5278;DHT22;2662;51.194;6.614;2023-05-16T15:20:19;17.30;93.40
5278;DHT22;2662;51.194;6.614;2023-05-16T15:22:46;17.40;93.60
5278;DHT22;2662;51.194;6.614;2023-05-16T15:25:13;17.20;93.10
5278;DHT22;2662;51.194;6.614;2023-05-16T15:27:40;17.20;93.50
5278;DHT22;2662;51.194;6.614;2023-05-16T15:30:08;17.10;94.40
5278;DHT22;2662;51.194;6.614;2023-05-16T15:32:36;17.10;94.10
5278;DHT22;2662;51.194;6.614;2023-05-16T15:35:03;17.10;95.30
5278;DHT22;2662;51.194;6.614;2023-05-16T15:37:31;17.30;96.40
5278;DHT22;2662;51.194;6.614;2023-05-16T15:39:57;17.20;94.90
5278;DHT22;2662;51.194;6.614;2023-05-16T15:42:24;17.10;95.00
5278;DHT22;2662;51.194;6.614;2023-05-16T15:44:51;17.00;95.00
5278;DHT22;2662;51.194;6.614;2023-05-16T15:47:18;17.00;96.10
5278;DHT22;2662;51.194;6.614;2023-05-16T15:49:46;17.10;95.40
5278;DHT22;2662;51.194;6.614;2023-05-16T15:52:13;17.00;96.10
5278;DHT22;2662;51.194;6.614;2023-05-16T15:54:40;17.00;96.80
5278;DHT22;2662;51.194;6.614;2023-05-16T15:57:06;17.00;96.50
5278;DHT22;2662;51.194;6.614;2023-05-16T15:59:33;16.90;95.80
5278;DHT22;2662;51.194;6.614;2023-05-16T16:02:00;16.80;96.00
5278;DHT22;2662;51.194;6.614;2023-05-16T16:04:29;16.70;95.80
5278;DHT22;2662;51.194;6.614;2023-05-16T16:06:58;16.70;95.90
5278;DHT22;2662;51.194;6.614;2023-05-16T16:09:24;16.70;95.80